Terminal Aerodrome Forecast
Issued by NWS

Home | Current Version | Previous Version | Text Only | Print | Product List | Glossary On
Versions: 1 2 3 4 5 6 7 8 9 10 11 12
694
FTUS41 KBTV 231730
TAFSLK
TAF
KSLK 231730Z 2318/2418 19011G17KT P6SM BKN200
     FM240200 17011G22KT P6SM BKN090
     FM241000 17016G30KT P6SM VCSH BKN045 WS020/17050KT
     FM241300 17017G34KT 3SM +RA BR OVC040=

USA.gov is the U.S. government's official web portal to all federal, state and local government web resources and services.